createdAt,value
2019-04-14T00:02:06.087Z,78.76
2019-04-14T00:07:06.343Z,79.06
2019-04-14T00:12:07.812Z,79.22
2019-04-14T00:17:06.618Z,79.28
2019-04-14T00:22:07.209Z,79.29
2019-04-14T00:27:06.657Z,79.19
2019-04-14T00:32:07.241Z,78.85
2019-04-14T00:37:07.686Z,78.87
2019-04-14T00:41:07.164Z,78.7
2019-04-14T00:46:06.299Z,79.02
2019-04-14T00:51:06.999Z,78.77
2019-04-14T00:56:06.515Z,78.61
2019-04-14T01:01:06.916Z,78.78
2019-04-14T01:06:10.435Z,78.61
2019-04-14T01:11:07.352Z,78.54
2019-04-14T01:15:09.254Z,79.03
2019-04-14T01:16:10.195Z,79.03
2019-04-14T01:20:07.640Z,78.91
2019-04-14T01:25:06.426Z,79.32
2019-04-14T01:30:08.815Z,79.51
2019-04-14T01:35:07.474Z,79.55
2019-04-14T01:40:07.416Z,79.55
2019-04-14T01:45:07.925Z,79.49
2019-04-14T01:49:07.641Z,79.2
2019-04-14T01:54:07.032Z,78.67
2019-04-14T01:59:06.865Z,78.93
2019-04-14T02:04:07.297Z,79.02
2019-04-14T02:09:07.515Z,78.9
2019-04-14T02:14:06.172Z,79.25
2019-04-14T02:19:06.737Z,79.44
2019-04-14T02:23:08.120Z,79.79
2019-04-14T02:28:07.307Z,79.96
2019-04-14T02:34:07.202Z,80.05
2019-04-14T02:43:37.365Z,80.4
2019-04-14T02:49:18.241Z,80.04
2019-04-14T02:53:23.471Z,79.98
2019-04-14T02:57:29.737Z,80.39
2019-04-14T03:02:55.993Z,81.09
2019-04-14T03:07:35.972Z,81.68
2019-04-14T03:12:30.901Z,82.01
2019-04-14T03:31:58.687Z,84.78
2019-04-14T03:37:14.864Z,85.07
2019-04-14T03:41:28.872Z,85.28
2019-04-14T03:51:36.410Z,85.97
2019-04-14T03:56:19.995Z,86.15
2019-04-14T04:00:09.976Z,86.37
2019-04-14T04:05:08.867Z,86.43
2019-04-14T04:10:07.638Z,86.33
2019-04-14T04:15:10.791Z,86.44
2019-04-14T04:20:07.141Z,86.54
2019-04-14T04:25:09.336Z,86.66
2019-04-14T04:30:08.053Z,86.94
2019-04-14T04:35:06.853Z,87.24
2019-04-14T04:39:08.198Z,87.32
2019-04-14T04:44:07.528Z,87.55
2019-04-14T04:49:18.055Z,87.95
2019-04-14T04:54:06.544Z,89.38
2019-04-14T04:59:07.905Z,90.9
2019-04-14T05:04:06.898Z,91.92
2019-04-14T05:08:08.648Z,92.27
2019-04-14T05:14:06.860Z,93.61
2019-04-14T05:18:07.482Z,94.14
2019-04-14T05:23:08.409Z,95.02
2019-04-14T05:28:07.334Z,95.55
2019-04-14T05:33:07.870Z,95.28
2019-04-14T05:38:06.594Z,95.82
2019-04-14T05:43:07.121Z,95.88
2019-04-14T05:48:07.780Z,95.8
2019-04-14T05:52:06.247Z,96.12
2019-04-14T05:57:06.625Z,96.21
2019-04-14T06:02:07.629Z,95.96
2019-04-14T06:07:06.888Z,96.38
2019-04-14T06:12:06.385Z,96.94
2019-04-14T06:16:07.250Z,96.43
2019-04-14T06:17:06.620Z,96.43
2019-04-14T06:21:06.783Z,96.74
2019-04-14T06:26:06.854Z,96.69
2019-04-14T06:31:07.691Z,96.63
2019-04-14T06:36:06.068Z,96.9
2019-04-14T06:41:07.192Z,97.57
2019-04-14T06:46:06.353Z,97.21
2019-04-14T06:51:06.497Z,97.51
2019-04-14T06:55:06.523Z,97.51
2019-04-14T07:00:08.991Z,98.16
2019-04-14T07:05:06.517Z,97.89
2019-04-14T07:10:07.041Z,98.35
2019-04-14T07:15:09.118Z,98.54
2019-04-14T07:19:07.110Z,98.7
2019-04-14T07:20:06.426Z,98.7
2019-04-14T07:24:06.568Z,98.53
2019-04-14T07:29:07.029Z,98.78
2019-04-14T07:34:07.056Z,98.57
2019-04-14T07:39:06.603Z,98.81
2019-04-14T07:44:06.807Z,98.65
2019-04-14T07:49:06.558Z,98.72
2019-04-14T07:54:06.267Z,97.96
2019-04-14T07:58:06.744Z,98.92
2019-04-14T08:03:06.310Z,98.41
2019-04-14T08:08:06.563Z,98.72
2019-04-14T08:13:06.224Z,98.12
2019-04-14T08:18:07.421Z,98.56
2019-04-14T08:22:07.109Z,98.92
2019-04-14T08:23:06.079Z,98.92
2019-04-14T08:27:06.464Z,98.78
2019-04-14T08:32:06.388Z,99.08
2019-04-14T08:37:06.595Z,98.66
2019-04-14T08:42:06.203Z,98.8
2019-04-14T08:47:06.168Z,98.47
2019-04-14T08:52:06.203Z,98.57
2019-04-14T08:56:06.751Z,97.96
2019-04-14T08:57:06.710Z,97.96
2019-04-14T09:01:06.539Z,98.76
2019-04-14T09:06:06.847Z,98.43
2019-04-14T09:11:06.468Z,97.91
2019-04-14T09:16:06.448Z,97.52
2019-04-14T09:21:06.719Z,98.37
2019-04-14T09:26:06.805Z,98.61
2019-04-14T09:30:07.944Z,98.7
2019-04-14T09:35:06.183Z,98.5
2019-04-14T09:40:06.478Z,99.14
2019-04-14T09:45:07.821Z,99.07
2019-04-14T09:50:06.004Z,98.24
2019-04-14T09:55:06.140Z,98.34
2019-04-14T10:04:06.223Z,97.95
2019-04-14T10:09:06.842Z,98.05
2019-04-14T10:14:06.284Z,98.11
2019-04-14T10:19:06.838Z,99.21
2019-04-14T10:24:06.004Z,98.98
2019-04-14T10:29:06.129Z,99.15
2019-04-14T10:34:06.165Z,99.48
2019-04-14T10:38:06.733Z,98.64
2019-04-14T10:43:06.436Z,98.49
2019-04-14T10:48:06.332Z,97.88
2019-04-14T10:53:06.487Z,97.73
2019-04-14T10:58:06.383Z,97.92
2019-04-14T11:03:06.933Z,97.79
2019-04-14T11:07:06.389Z,97.72
2019-04-14T11:12:06.851Z,97.79
2019-04-14T11:17:06.166Z,97.8
2019-04-14T11:22:06.448Z,97.52
2019-04-14T11:27:06.708Z,97.02
2019-04-14T11:32:06.233Z,96.95
2019-04-14T11:36:07.347Z,96.6
2019-04-14T11:37:05.980Z,96.6
2019-04-14T11:41:07.036Z,96.85
2019-04-14T11:46:06.889Z,96.55
2019-04-14T11:51:06.202Z,95.86
2019-04-14T11:56:06.506Z,96.34
2019-04-14T12:01:06.210Z,96.37
2019-04-14T12:06:06.701Z,95.67
2019-04-14T12:11:06.057Z,96.74
2019-04-14T12:15:08.262Z,96.2
2019-04-14T12:20:06.559Z,95.51
2019-04-14T12:25:07.021Z,94.12
2019-04-14T12:30:09.449Z,93.7
2019-04-14T12:35:07.211Z,94.27
2019-04-14T12:40:07.805Z,94.24
2019-04-14T12:44:07.440Z,92.43
2019-04-14T12:49:07.706Z,91.39
2019-04-14T12:54:05.939Z,93.09
2019-04-14T12:59:07.024Z,91.92
2019-04-14T13:04:06.714Z,91.16
2019-04-14T13:09:07.688Z,91.08
2019-04-14T13:14:06.649Z,92.17
2019-04-14T13:19:06.448Z,91.13
2019-04-14T13:24:06.422Z,89.61
2019-04-14T13:28:07.823Z,90.74
2019-04-14T13:33:06.057Z,90.71
2019-04-14T13:38:06.580Z,90.01
2019-04-14T13:43:06.703Z,90.09
2019-04-14T13:48:07.071Z,89.2
2019-04-14T13:52:06.279Z,90.67
2019-04-14T13:53:06.244Z,90.67
2019-04-14T13:57:07.611Z,89.84
2019-04-14T14:02:06.314Z,88.94
2019-04-14T14:07:06.864Z,89.55
2019-04-14T14:12:06.213Z,88.53
2019-04-14T14:17:06.466Z,89.09
2019-04-14T14:22:06.465Z,86.89
2019-04-14T14:26:07.955Z,84.52
2019-04-14T14:27:06.292Z,84.52
2019-04-14T14:31:06.281Z,84.74
2019-04-14T14:36:07.744Z,84.37
2019-04-14T14:41:06.525Z,83.4
2019-04-14T14:46:06.707Z,82.93
2019-04-14T14:51:06.528Z,82.54
2019-04-14T14:56:07.256Z,83.69
2019-04-14T15:01:07.552Z,84.07
2019-04-14T15:05:06.264Z,83.84
2019-04-14T15:10:06.738Z,84.88
2019-04-14T15:15:08.849Z,84.93
2019-04-14T15:20:06.466Z,84.87
2019-04-14T15:25:07.270Z,83.82
2019-04-14T15:30:07.756Z,83.96
2019-04-14T15:35:06.959Z,83.97
2019-04-14T15:40:06.079Z,84.04
2019-04-14T15:44:07.572Z,84.15
2019-04-14T15:49:06.853Z,82.44
2019-04-14T15:54:07.705Z,81.08
2019-04-14T15:59:06.954Z,78.8
2019-04-14T16:04:06.926Z,78.71
2019-04-14T16:09:06.550Z,79.88
2019-04-14T16:13:10.012Z,79.68
2019-04-14T16:14:06.640Z,79.68
2019-04-14T16:18:06.845Z,79.35
2019-04-14T16:23:08.115Z,79.4
2019-04-14T16:28:06.476Z,79.64
2019-04-14T16:33:08.102Z,80.86
2019-04-14T16:38:06.496Z,81.62
2019-04-14T16:43:08.315Z,81.2
2019-04-14T16:48:06.909Z,78.85
2019-04-14T16:52:06.694Z,76.42
2019-04-14T16:57:07.543Z,75.1
2019-04-14T17:02:13.021Z,73.88
2019-04-14T17:07:07.316Z,73.75
2019-04-14T17:12:06.578Z,73.13
2019-04-14T17:17:06.776Z,74.16
2019-04-14T17:22:07.057Z,74.56
2019-04-14T17:26:06.913Z,74.31
2019-04-14T17:31:06.727Z,74.75
2019-04-14T17:36:07.649Z,75.58
2019-04-14T17:41:08.394Z,75.49
2019-04-14T17:46:08.074Z,76.61
2019-04-14T17:51:06.569Z,77.7
2019-04-14T17:56:07.867Z,78.11
2019-04-14T18:00:08.146Z,78.66
2019-04-14T18:05:07.042Z,79.19
2019-04-14T18:10:06.418Z,79.32
2019-04-14T18:15:13.541Z,79.66
2019-04-14T18:20:06.717Z,79.82
2019-04-14T18:25:07.573Z,79.61
2019-04-14T18:29:06.465Z,80.05
2019-04-14T18:34:07.419Z,80.83
2019-04-14T18:39:08.330Z,80.92
2019-04-14T18:44:07.185Z,81.17
2019-04-14T18:49:10.502Z,81.17
2019-04-14T18:54:06.853Z,81.28
2019-04-14T18:59:09.130Z,80.5
2019-04-14T19:04:06.722Z,80.09
2019-04-14T19:08:08.365Z,79.73
2019-04-14T19:13:07.867Z,79.61
2019-04-14T19:18:08.527Z,79.35
2019-04-14T19:23:07.444Z,79.8
2019-04-14T19:28:08.405Z,79.87
2019-04-14T19:33:06.451Z,80.2
2019-04-14T19:38:07.008Z,80.29
2019-04-14T19:42:06.460Z,80.32
2019-04-14T19:43:06.367Z,80.32
2019-04-14T19:47:07.055Z,80.54
2019-04-14T19:52:06.643Z,80.67
2019-04-14T19:57:06.360Z,80.65
2019-04-14T20:02:06.852Z,80.18
2019-04-14T20:07:06.640Z,80.15
2019-04-14T20:12:06.770Z,80.15
2019-04-14T20:17:06.413Z,80.64
2019-04-14T20:22:06.570Z,80.8
2019-04-14T20:26:06.386Z,80.97
2019-04-14T20:31:06.486Z,81.08
2019-04-14T20:36:06.702Z,81.6
2019-04-14T20:41:06.200Z,82.27
2019-04-14T20:46:06.094Z,83.15
2019-04-14T20:51:06.353Z,83.43
2019-04-14T20:56:06.605Z,83.73
2019-04-14T21:00:08.622Z,84.63
2019-04-14T21:01:06.715Z,84.63
2019-04-14T21:05:06.090Z,84.63
2019-04-14T21:10:06.590Z,84.64
2019-04-14T21:15:07.951Z,84.63
2019-04-14T21:20:06.020Z,84.32
2019-04-14T21:25:06.262Z,84.1
2019-04-14T21:30:07.925Z,83.98
2019-04-14T21:34:07.420Z,84.24
2019-04-14T21:35:06.091Z,84.24
2019-04-14T21:39:07.276Z,84.55
2019-04-14T21:44:06.390Z,84.85
2019-04-14T21:49:06.508Z,85.16
2019-04-14T21:54:06.760Z,85.2
2019-04-14T21:59:07.031Z,85
2019-04-14T22:04:06.733Z,84.65
2019-04-14T22:08:06.483Z,84.53
2019-04-14T22:13:06.910Z,84.33
2019-04-14T22:18:07.832Z,84.47
2019-04-14T22:23:07.026Z,84.97
2019-04-14T22:28:07.204Z,85.08
2019-04-14T22:33:07.235Z,85.12
2019-04-14T22:38:07.411Z,85.11
2019-04-14T22:43:07.071Z,85.37
2019-04-14T22:47:07.046Z,86.07
2019-04-14T22:52:07.304Z,86.56
2019-04-14T22:57:07.667Z,87.19
2019-04-14T23:02:07.634Z,87.27
2019-04-14T23:07:06.941Z,87.28
2019-04-14T23:12:07.643Z,87.18
2019-04-14T23:17:07.529Z,87.05
2019-04-14T23:22:07.817Z,87.04
2019-04-14T23:26:07.350Z,87.06
2019-04-14T23:27:07.341Z,87.06
2019-04-14T23:31:07.778Z,86.99
2019-04-14T23:36:07.104Z,86.4
2019-04-14T23:41:07.784Z,86.24
2019-04-14T23:46:06.956Z,86.61
2019-04-14T23:51:07.196Z,87.11
2019-04-14T23:56:07.407Z,87.17
